Humidity-temperature Sensor

Selected Measurement Type: Relative Humidity

 
Relative Humidity [%]     6 entries per hour
Showing data from 4/8/2016 (00:00:00 Z) to 4/1/2016 (00:01:00 Z)
Previous Next [ Day | 3-Days | 7-Days ]
First Last
Prev [ Day | 3-Days | 7-Days ] Next
First Last

Start Time:     :
End Time:     :     
Time (in GMT) :00 :50 :40 :30 :20 :10
Previous Next [ Day | 3-Days | 7-Days ]
First Last
Prev [ Day | 3-Days | 7-Days ] Next
First Last


123 => good data
MM => data is determined as missing
-- => data not received/configured
Back to Top Back to Top
4/8/2016 00:00 to 23:10 86.44 86.02 85.90 84.47 83.76 84.41
4/7/2016 23:00 to 22:10 84.14 84.41 85.32 84.72 86.34 86.34
4/7/2016 22:00 to 21:10 84.07 84.61 84.18 86.04 86.48 85.98
4/7/2016 21:00 to 20:10 84.82 85.03 84.99 85.63 85.24 86.23
4/7/2016 20:00 to 19:10 86.86 88.25 88.04 87.93 87.79 88.43
4/7/2016 19:00 to 18:10 88.75 88.29 88.52 88.27 88.83 88.83
4/7/2016 18:00 to 17:10 88.20 88.64 87.89 87.46 88.25 88.50
4/7/2016 17:00 to 16:10 88.54 88.02 87.60 87.87 87.77 88.20
4/7/2016 16:00 to 15:10 88.41 89.47 88.25 87.93 88.10 87.87
4/7/2016 15:00 to 14:10 87.77 87.50 86.94 86.59 86.96 86.36
4/7/2016 14:00 to 13:10 86.52 84.94 85.42 85.65 86.02 86.17
4/7/2016 13:00 to 12:10 84.65 85.98 85.67 86.23 86.94 86.90
4/7/2016 12:00 to 11:10 88.18 87.44 87.73 87.50 87.79 87.89
4/7/2016 11:00 to 10:10 86.73 87.75 88.16 88.12 86.83 88.45
4/7/2016 10:00 to 9:10 88.00 88.70 87.35 88.23 87.60 87.71
4/7/2016 09:00 to 8:10 86.23 86.36 85.17 86.85 86.71 87.10
4/7/2016 08:00 to 7:10 87.08 85.71 85.94 88.79 87.93 89.02
4/7/2016 07:00 to 6:10 88.37 88.48 89.78 89.04 88.16 88.16
4/7/2016 06:00 to 5:10 88.85 88.68 88.66 89.18 88.50 88.29
4/7/2016 05:00 to 4:10 88.60 88.58 88.41 88.14 88.23 88.20
4/7/2016 04:00 to 3:10 87.75 87.52 87.27 86.63 87.31 87.37
4/7/2016 03:00 to 2:10 86.02 86.52 86.29 87.02 86.94 87.12
4/7/2016 02:00 to 1:10 85.86 86.29 86.42 85.65 86.36 86.15
4/7/2016 01:00 to 0:10 86.56 86.19 87.44 86.09 85.80 85.24
4/7/2016 00:00 to 23:10 85.32 86.77 85.96 87.19 87.17 87.29
4/6/2016 23:00 to 22:10 87.33 87.19 86.44 86.96 87.39 87.94
4/6/2016 22:00 to 21:10 87.81 87.89 88.21 87.31 88.64 88.37
4/6/2016 21:00 to 20:10 86.81 87.73 87.93 87.52 87.87 88.14
4/6/2016 20:00 to 19:10 87.75 88.50 88.10 87.94 88.23 87.96
4/6/2016 19:00 to 18:10 88.08 87.85 87.25 87.98 88.35 88.18
4/6/2016 18:00 to 17:10 88.20 87.98 87.37 87.91 87.48 86.65
4/6/2016 17:00 to 16:10 88.79 89.04 88.43 87.71 89.89 89.41
4/6/2016 16:00 to 15:10 88.27 87.39 89.29 89.10 88.45 88.08
4/6/2016 15:00 to 14:10 88.10 88.72 89.37 89.22 87.75 87.71
4/6/2016 14:00 to 13:10 88.68 88.31 88.54 89.72 89.26 89.80
4/6/2016 13:00 to 12:10 89.83 90.28 90.88 89.37 90.51 90.22
4/6/2016 12:00 to 11:10 90.22 90.39 90.18 90.47 91.55 90.74
4/6/2016 11:00 to 10:10 91.09 91.28 90.64 90.53 91.32 90.90
4/6/2016 10:00 to 9:10 91.44 90.53 90.90 91.36 91.42 91.20
4/6/2016 09:00 to 8:10 91.40 91.72 91.26 91.59 91.80 92.09
4/6/2016 08:00 to 7:10 91.67 91.11 91.45 90.84 90.95 91.53
4/6/2016 07:00 to 6:10 92.01 92.21 91.57 92.17 91.88 91.44
4/6/2016 06:00 to 5:10 91.57 91.92 91.84 92.25 91.72 92.30
4/6/2016 05:00 to 4:10 92.21 92.30 91.17 92.09 91.36 91.88
4/6/2016 04:00 to 3:10 91.22 91.26 91.18 90.32 91.51 91.69
4/6/2016 03:00 to 2:10 91.88 91.32 91.03 90.84 90.51 89.31
4/6/2016 02:00 to 1:10 90.59 90.86 90.90 90.22 90.93 90.70
4/6/2016 01:00 to 0:10 89.64 89.41 89.49 88.23 88.16 87.98
4/6/2016 00:00 to 23:10 87.75 88.66 86.65 87.42 86.92 87.69
4/5/2016 23:00 to 22:10 87.64 86.00 86.59 88.20 88.83 86.56
4/5/2016 22:00 to 21:10 88.85 88.89 88.48 88.56 88.16 88.62
4/5/2016 21:00 to 20:10 87.64 87.35 89.24 88.43 88.31 88.18
4/5/2016 20:00 to 19:10 88.27 87.85 89.14 88.21 89.60 89.08
4/5/2016 19:00 to 18:10 88.70 89.29 89.04 89.39 90.28 90.68
4/5/2016 18:00 to 17:10 91.03 91.32 90.30 90.16 90.09 90.36
4/5/2016 17:00 to 16:10 90.74 90.12 90.57 89.99 89.62 90.16
4/5/2016 16:00 to 15:10 90.01 89.82 89.82 89.66 88.74 87.98
4/5/2016 15:00 to 14:10 88.72 88.56 87.66 87.81 87.69 87.21
4/5/2016 14:00 to 13:10 87.13 87.56 88.37 88.29 87.46 87.52
4/5/2016 13:00 to 12:10 89.56 90.16 91.34 90.16 90.93 90.76
4/5/2016 12:00 to 11:10 89.58 89.43 89.80 88.75 89.39 89.72
4/5/2016 11:00 to 10:10 89.76 89.10 87.85 88.18 87.94 87.37
4/5/2016 10:00 to 9:10 87.50 88.20 87.96 87.75 87.75 87.39
4/5/2016 09:00 to 8:10 87.50 87.19 87.66 87.12 87.02 87.60
4/5/2016 08:00 to 7:10 88.16 87.27 88.43 87.64 87.81 88.66
4/5/2016 07:00 to 6:10 88.54 87.94 87.93 88.79 88.95 88.89
4/5/2016 06:00 to 5:10 88.81 88.91 88.18 88.79 89.49 89.78
4/5/2016 05:00 to 4:10 89.53 89.18 88.31 87.13 87.87 86.13
4/5/2016 04:00 to 3:10 86.23 85.34 85.78 86.17 86.00 85.40
4/5/2016 03:00 to 2:10 85.63 86.29 86.31 86.58 87.19 85.23
4/5/2016 02:00 to 1:10 86.44 87.62 87.33 85.67 82.79 84.13
4/5/2016 01:00 to 0:10 84.65 83.18 84.78 83.62 83.84 82.62
4/5/2016 00:00 to 23:10 84.76 82.68 81.83 83.37 81.75 83.68
4/4/2016 23:00 to 22:10 81.85 82.95 81.50 82.93 82.68 82.76
4/4/2016 22:00 to 21:10 83.55 84.90 84.28 81.43 82.22 83.95
4/4/2016 21:00 to 20:10 83.03 83.30 84.01 83.74 83.87 82.41
4/4/2016 20:00 to 19:10 82.97 83.86 83.47 82.91 81.43 81.77
4/4/2016 19:00 to 18:10 80.65 81.54 81.14 82.14 82.89 83.72
4/4/2016 18:00 to 17:10 84.36 84.94 83.51 84.16 84.67 83.26
4/4/2016 17:00 to 16:10 83.87 82.70 82.66 83.41 83.89 83.18
4/4/2016 16:00 to 15:10 83.01 83.08 82.95 83.35 83.82 83.37
4/4/2016 15:00 to 14:10 84.40 83.47 83.08 82.27 82.52 83.30
4/4/2016 14:00 to 13:10 83.72 82.91 82.35 82.58 83.39 83.41
4/4/2016 13:00 to 12:10 84.34 84.90 84.90 86.38 85.61 85.96
4/4/2016 12:00 to 11:10 84.72 85.44 85.11 84.90 85.71 85.46
4/4/2016 11:00 to 10:10 85.55 85.13 85.44 86.23 85.40 85.96
4/4/2016 10:00 to 9:10 85.15 85.26 86.04 85.69 85.92 85.71
4/4/2016 09:00 to 8:10 84.26 83.78 84.76 84.78 84.88 85.05
4/4/2016 08:00 to 7:10 84.43 84.82 84.09 84.53 85.59 85.42
4/4/2016 07:00 to 6:10 84.45 84.18 85.05 84.69 83.95 83.93
4/4/2016 06:00 to 5:10 84.78 85.32 84.90 84.51 84.65 85.09
4/4/2016 05:00 to 4:10 84.99 84.76 85.73 84.40 84.47 84.05
4/4/2016 04:00 to 3:10 82.93 82.78 81.58 82.41 82.18 83.45
4/4/2016 03:00 to 2:10 83.62 83.95 82.64 84.40 83.70 83.47
4/4/2016 02:00 to 1:10 83.26 83.55 83.53 83.84 84.43 83.59
4/4/2016 01:00 to 0:10 83.49 82.62 83.10 82.49 82.79 82.89
4/4/2016 00:00 to 23:10 80.98 81.97 81.56 81.27 80.11 80.08
4/3/2016 23:00 to 22:10 81.93 81.89 81.27 81.12 79.27 79.75
4/3/2016 22:00 to 21:10 79.63 80.04 79.48 79.67 78.55 78.74
4/3/2016 21:00 to 20:10 79.92 80.02 80.60 80.52 80.63 80.06
4/3/2016 20:00 to 19:10 81.54 81.70 82.37 81.93 81.33 81.39
4/3/2016 19:00 to 18:10 80.33 79.65 81.17 79.19 80.06 79.44
4/3/2016 18:00 to 17:10 79.63 79.57 79.52 79.96 78.74 79.19
4/3/2016 17:00 to 16:10 79.77 80.48 79.54 80.85 80.11 81.04
4/3/2016 16:00 to 15:10 81.04 81.79 82.14 82.52 82.60 81.75
4/3/2016 15:00 to 14:10 82.45 82.29 80.46 81.37 81.79 83.10
4/3/2016 14:00 to 13:10 83.01 81.91 82.02 84.53 83.45 83.89
4/3/2016 13:00 to 12:10 84.30 85.09 84.43 85.13 85.24 84.99
4/3/2016 12:00 to 11:10 85.01 85.67 86.04 85.36 85.88 85.28
4/3/2016 11:00 to 10:10 86.19 85.38 85.34 84.51 85.67 83.74
4/3/2016 10:00 to 9:10 84.82 84.70 83.86 82.62 82.56 82.04
4/3/2016 09:00 to 8:10 82.74 82.14 82.12 82.45 80.98 81.73
4/3/2016 08:00 to 7:10 82.91 81.58 81.58 81.00 81.25 81.02
4/3/2016 07:00 to 6:10 81.98 81.79 81.35 81.31 81.77 81.54
4/3/2016 06:00 to 5:10 80.11 80.25 80.23 80.13 80.25 81.27
4/3/2016 05:00 to 4:10 80.36 79.52 79.01 78.92 79.30 78.88
4/3/2016 04:00 to 3:10 78.84 78.46 78.09 78.07 78.51 77.86
4/3/2016 03:00 to 2:10 77.55 78.05 76.72 77.76 78.32 78.30
4/3/2016 02:00 to 1:10 76.84 77.80 78.01 79.30 81.04 81.41
4/3/2016 01:00 to 0:10 81.37 82.72 82.51 82.10 83.33 82.56
4/3/2016 00:00 to 23:10 81.98 83.12 82.02 83.57 83.24 84.03
4/2/2016 23:00 to 22:10 84.55 83.16 83.43 83.18 83.26 82.37
4/2/2016 22:00 to 21:10 83.49 83.80 83.05 82.79 81.87 82.74
4/2/2016 21:00 to 20:10 81.91 82.47 82.60 82.91 83.03 82.56
4/2/2016 20:00 to 19:10 81.08 81.46 81.70 82.20 82.20 82.00
4/2/2016 19:00 to 18:10 80.17 80.15 80.63 81.64 82.22 82.52
4/2/2016 18:00 to 17:10 81.79 82.45 82.58 83.32 84.49 84.11
4/2/2016 17:00 to 16:10 84.26 84.63 85.40 85.38 85.13 85.01
4/2/2016 16:00 to 15:10 84.59 85.23 84.53 86.50 85.50 86.17
4/2/2016 15:00 to 14:10 85.17 85.30 86.02 85.40 84.45 84.59
4/2/2016 14:00 to 13:10 85.11 84.94 86.23 86.58 85.32 84.30
4/2/2016 13:00 to 12:10 85.65 85.88 86.81 86.88 86.81 86.09
4/2/2016 12:00 to 11:10 87.52 88.35 88.00 88.62 88.41 88.64
4/2/2016 11:00 to 10:10 88.33 89.22 88.58 88.39 88.75 89.55
4/2/2016 10:00 to 9:10 88.77 87.69 88.10 87.75 88.33 88.39
4/2/2016 09:00 to 8:10 89.02 88.41 88.56 88.50 88.45 87.64
4/2/2016 08:00 to 7:10 87.19 87.66 87.91 87.81 87.42 87.56
4/2/2016 07:00 to 6:10 87.96 87.48 87.21 87.21 86.46 87.52
4/2/2016 06:00 to 5:10 87.85 87.06 86.69 86.69 87.42 87.23
4/2/2016 05:00 to 4:10 87.40 87.33 86.67 81.39 78.34 78.69
4/2/2016 04:00 to 3:10 79.13 79.34 77.38 77.57 77.78 76.26
4/2/2016 03:00 to 2:10 76.49 76.53 76.53 77.47 76.53 77.34
4/2/2016 02:00 to 1:10 77.26 77.11 76.16 77.03 75.45 75.83
4/2/2016 01:00 to 0:10 75.52 75.60 74.40 74.87 74.00 72.69
4/2/2016 00:00 to 23:10 72.96 72.88 72.61 72.88 72.92 73.21
4/1/2016 23:00 to 22:10 72.65 73.27 72.51 72.67 73.25 72.78
4/1/2016 22:00 to 21:10 72.07 74.25 73.58 72.71 72.40 74.35
4/1/2016 21:00 to 20:10 72.23 71.74 74.52 74.08 74.25 72.46
4/1/2016 20:00 to 19:10 76.01 75.64 76.45 77.12 77.95 78.40
4/1/2016 19:00 to 18:10 77.32 78.36 78.34 78.36 77.88 78.65
4/1/2016 18:00 to 17:10 78.40 78.24 80.50 79.54 80.79 80.85
4/1/2016 17:00 to 16:10 80.73 81.39 82.20 82.45 81.83 82.81
4/1/2016 16:00 to 15:10 82.43 83.57 83.41 82.70 83.26 82.43
4/1/2016 15:00 to 14:10 81.79 81.73 82.12 82.85 82.43 82.52
4/1/2016 14:00 to 13:10 82.72 82.70 82.60 82.87 84.07 84.45
4/1/2016 13:00 to 12:10 85.32 86.27 87.17 87.58 87.35 87.75
4/1/2016 12:00 to 11:10 87.56 87.98 88.35 88.95 88.81 88.89
4/1/2016 11:00 to 10:10 88.18 88.70 88.81 88.89 89.12 88.99
4/1/2016 10:00 to 9:10 89.14 88.95 88.74 88.99 88.89 89.26
4/1/2016 09:00 to 8:10 89.24 89.12 88.89 89.33 88.77 88.83
4/1/2016 08:00 to 7:10 89.01 88.74 88.41 88.39 88.29 87.81
4/1/2016 07:00 to 6:10 87.96 87.79 87.93 88.37 87.48 87.25
4/1/2016 06:00 to 5:10 87.62 86.77 86.94 87.25 86.52 86.63
4/1/2016 05:00 to 4:10 86.75 87.08 85.73 85.24 85.17 84.69
4/1/2016 04:00 to 3:10 85.21 83.60 83.66 83.55 83.62 83.16
4/1/2016 03:00 to 2:10 83.91 85.07 84.32 85.65 87.08 86.50
4/1/2016 02:00 to 1:10 87.08 86.52 85.61 82.00 83.41 85.38
4/1/2016 01:00 to 0:10 85.57 85.44 84.55 83.24 84.20 87.04